Portada
METAR-TAF:

METAR-TAF

Aeroports :

Valdosta Regional Airport

Valdosta, Geòrgia, Estats Units d'Amèrica

latitud: 30-47N, longitud: 083-17W, altitud: 62 m

Observació

L'informe es va fer fa 50 minuts, a les 20:53 UTC
Vent 3 kt amb direcció variable
Temperatura 17°C
Humitat 27%
Pressió 1021 hPa
Visibilitat: 16.1 km
Cel clar

METAR: KVLD 282053Z VRB03KT 10SM CLR 17/M02 A3016 RMK AO2 SLP223 T01721022 56024

Hora: 16:43 (21:43 UTC)

Pronòstic

L'informe es va fer fa 4 hores i 23 minuts, a les 17:20 UTC
Pronòstic vàlid del 28 a les 18 UTC al 29 a les 18 UTC
Vent 10 kt del Oest
Visibilitat: 10 km
Cel clar
A partir de les 28 a les 2300 UTC
Vent 3 kt del Oest/Sud-Oest
Visibilitat: 10 km
Cel clar
A partir de les 29 a les 1500 UTC
Vent 10 kt del Oest/Nord-Oest amb ràfegues de 19 kt
Visibilitat: 10 km
Cel clar

TAF: KVLD 281720Z 2818/2918 28010KT P6SM SKC FM282300 24003KT P6SM SKC FM291500 29010G19KT P6SM SKC

Observacions i pronòstics meteorològics de més de 4000 aeroports (METAR i TAF).

Les estacions disponibles són els punts grocs i vermells al mapa.

Posi el ratolí al punt desitjat per veure el nom de l'estació.

Feu clic per veure les observacions i els pronòstics meteorològics.

Per canviar el mapa: feu clic els botons verds amb una creu de color negre per apropar; al botó verd amb un guió per allunyar la imatge; o en les fletxes verdes per a mapes adjacents.


METAR-TAF: